sensor_id;sensor_type;location;lat;lon;timestamp;temperature;humidity
16301;DHT22;8258;51.020;4.248;2023-10-19T00:00:31;16.50;99.90
16301;DHT22;8258;51.020;4.248;2023-10-19T00:03:00;16.50;99.90
16301;DHT22;8258;51.020;4.248;2023-10-19T00:05:29;16.50;99.90
16301;DHT22;8258;51.020;4.248;2023-10-19T00:07:58;16.40;99.90
16301;DHT22;8258;51.020;4.248;2023-10-19T00:10:25;16.40;99.90
16301;DHT22;8258;51.020;4.248;2023-10-19T00:12:56;16.40;99.90
16301;DHT22;8258;51.020;4.248;2023-10-19T00:15:25;16.40;99.90
16301;DHT22;8258;51.020;4.248;2023-10-19T00:17:56;16.40;99.90
16301;DHT22;8258;51.020;4.248;2023-10-19T00:20:22;16.30;99.90
16301;DHT22;8258;51.020;4.248;2023-10-19T00:23:03;16.40;99.90
16301;DHT22;8258;51.020;4.248;2023-10-19T00:25:32;16.40;99.90
16301;DHT22;8258;51.020;4.248;2023-10-19T00:28:00;16.40;99.90
16301;DHT22;8258;51.020;4.248;2023-10-19T00:30:30;16.40;99.90
16301;DHT22;8258;51.020;4.248;2023-10-19T00:33:01;16.30;99.90
16301;DHT22;8258;51.020;4.248;2023-10-19T00:35:29;16.30;99.90
16301;DHT22;8258;51.020;4.248;2023-10-19T00:38:01;16.30;99.90
16301;DHT22;8258;51.020;4.248;2023-10-19T00:40:43;16.30;99.90
16301;DHT22;8258;51.020;4.248;2023-10-19T00:43:26;16.30;99.90
16301;DHT22;8258;51.020;4.248;2023-10-19T00:45:54;16.30;99.90
16301;DHT22;8258;51.020;4.248;2023-10-19T00:48:22;16.30;99.90
16301;DHT22;8258;51.020;4.248;2023-10-19T00:50:52;16.30;99.90
16301;DHT22;8258;51.020;4.248;2023-10-19T00:53:33;16.20;99.90
16301;DHT22;8258;51.020;4.248;2023-10-19T00:56:04;16.20;99.90
16301;DHT22;8258;51.020;4.248;2023-10-19T00:58:35;16.20;99.90
16301;DHT22;8258;51.020;4.248;2023-10-19T01:01:03;16.20;99.90
16301;DHT22;8258;51.020;4.248;2023-10-19T01:03:33;16.20;99.90
16301;DHT22;8258;51.020;4.248;2023-10-19T01:06:04;16.20;99.90
16301;DHT22;8258;51.020;4.248;2023-10-19T01:08:38;16.20;99.90
16301;DHT22;8258;51.020;4.248;2023-10-19T01:11:11;16.20;99.90
16301;DHT22;8258;51.020;4.248;2023-10-19T01:13:40;16.20;99.90
16301;DHT22;8258;51.020;4.248;2023-10-19T01:16:12;16.10;99.90
16301;DHT22;8258;51.020;4.248;2023-10-19T01:18:47;16.20;99.90
16301;DHT22;8258;51.020;4.248;2023-10-19T01:21:14;16.20;99.90
16301;DHT22;8258;51.020;4.248;2023-10-19T01:23:47;16.20;99.90
16301;DHT22;8258;51.020;4.248;2023-10-19T01:26:14;16.20;99.90
16301;DHT22;8258;51.020;4.248;2023-10-19T01:28:47;16.20;99.90
16301;DHT22;8258;51.020;4.248;2023-10-19T01:31:18;16.20;99.90
16301;DHT22;8258;51.020;4.248;2023-10-19T01:33:57;16.20;99.90
16301;DHT22;8258;51.020;4.248;2023-10-19T01:36:25;16.20;99.90
16301;DHT22;8258;51.020;4.248;2023-10-19T01:38:52;16.20;99.90
16301;DHT22;8258;51.020;4.248;2023-10-19T01:41:21;16.20;99.90
16301;DHT22;8258;51.020;4.248;2023-10-19T01:43:48;16.20;99.90
16301;DHT22;8258;51.020;4.248;2023-10-19T01:46:17;16.20;99.90
16301;DHT22;8258;51.020;4.248;2023-10-19T01:48:49;16.10;99.90
16301;DHT22;8258;51.020;4.248;2023-10-19T01:51:20;16.10;99.90
16301;DHT22;8258;51.020;4.248;2023-10-19T01:53:46;16.00;99.90
16301;DHT22;8258;51.020;4.248;2023-10-19T01:56:16;16.00;99.90
16301;DHT22;8258;51.020;4.248;2023-10-19T01:58:43;16.00;99.90
16301;DHT22;8258;51.020;4.248;2023-10-19T02:01:13;15.90;99.90
16301;DHT22;8258;51.020;4.248;2023-10-19T02:03:44;15.90;99.90
16301;DHT22;8258;51.020;4.248;2023-10-19T02:06:14;15.90;99.90
16301;DHT22;8258;51.020;4.248;2023-10-19T02:08:45;15.80;99.90
16301;DHT22;8258;51.020;4.248;2023-10-19T02:11:16;15.90;99.90
16301;DHT22;8258;51.020;4.248;2023-10-19T02:13:44;15.90;99.90
16301;DHT22;8258;51.020;4.248;2023-10-19T02:16:12;15.90;99.90
16301;DHT22;8258;51.020;4.248;2023-10-19T02:18:40;15.90;99.90
16301;DHT22;8258;51.020;4.248;2023-10-19T02:44:23;15.80;99.90
16301;DHT22;8258;51.020;4.248;2023-10-19T02:46:52;15.70;99.90
16301;DHT22;8258;51.020;4.248;2023-10-19T02:49:21;15.70;99.90
16301;DHT22;8258;51.020;4.248;2023-10-19T02:51:49;15.70;99.90
16301;DHT22;8258;51.020;4.248;2023-10-19T02:54:17;15.70;99.90
16301;DHT22;8258;51.020;4.248;2023-10-19T02:56:45;15.70;99.90
16301;DHT22;8258;51.020;4.248;2023-10-19T02:59:15;15.60;99.90
16301;DHT22;8258;51.020;4.248;2023-10-19T03:01:43;15.60;99.90
16301;DHT22;8258;51.020;4.248;2023-10-19T03:04:11;15.60;99.90
16301;DHT22;8258;51.020;4.248;2023-10-19T03:06:38;15.50;99.90
16301;DHT22;8258;51.020;4.248;2023-10-19T03:09:07;15.50;99.90
16301;DHT22;8258;51.020;4.248;2023-10-19T03:11:38;15.50;99.90
16301;DHT22;8258;51.020;4.248;2023-10-19T03:14:07;15.50;99.90
16301;DHT22;8258;51.020;4.248;2023-10-19T03:16:35;15.50;99.90
16301;DHT22;8258;51.020;4.248;2023-10-19T03:19:03;15.50;99.90
16301;DHT22;8258;51.020;4.248;2023-10-19T03:21:30;15.50;99.90
16301;DHT22;8258;51.020;4.248;2023-10-19T03:23:59;15.50;99.90
16301;DHT22;8258;51.020;4.248;2023-10-19T03:26:27;15.50;99.90
16301;DHT22;8258;51.020;4.248;2023-10-19T03:29:02;15.60;99.90
16301;DHT22;8258;51.020;4.248;2023-10-19T03:31:39;15.60;99.90
16301;DHT22;8258;51.020;4.248;2023-10-19T03:34:11;15.60;99.90
16301;DHT22;8258;51.020;4.248;2023-10-19T03:36:40;15.60;99.90
16301;DHT22;8258;51.020;4.248;2023-10-19T03:39:07;15.60;99.90
16301;DHT22;8258;51.020;4.248;2023-10-19T03:41:38;15.60;99.90
16301;DHT22;8258;51.020;4.248;2023-10-19T03:44:07;15.60;99.90
16301;DHT22;8258;51.020;4.248;2023-10-19T03:46:39;15.60;99.90
16301;DHT22;8258;51.020;4.248;2023-10-19T03:49:20;15.60;99.90
16301;DHT22;8258;51.020;4.248;2023-10-19T03:51:47;15.60;99.90
16301;DHT22;8258;51.020;4.248;2023-10-19T03:54:26;15.60;99.90
16301;DHT22;8258;51.020;4.248;2023-10-19T03:56:53;15.60;99.90
16301;DHT22;8258;51.020;4.248;2023-10-19T03:59:22;15.50;99.90
16301;DHT22;8258;51.020;4.248;2023-10-19T04:01:55;15.50;99.90
16301;DHT22;8258;51.020;4.248;2023-10-19T04:04:23;15.50;99.90
16301;DHT22;8258;51.020;4.248;2023-10-19T04:06:51;15.50;99.90
16301;DHT22;8258;51.020;4.248;2023-10-19T04:09:23;15.50;99.90
16301;DHT22;8258;51.020;4.248;2023-10-19T04:11:54;15.50;99.90
16301;DHT22;8258;51.020;4.248;2023-10-19T04:14:22;15.50;99.90
16301;DHT22;8258;51.020;4.248;2023-10-19T04:16:49;15.50;99.90
16301;DHT22;8258;51.020;4.248;2023-10-19T04:19:16;15.50;99.90
16301;DHT22;8258;51.020;4.248;2023-10-19T04:21:44;15.50;99.90
16301;DHT22;8258;51.020;4.248;2023-10-19T04:24:12;15.50;99.90
16301;DHT22;8258;51.020;4.248;2023-10-19T04:26:40;15.40;99.90
16301;DHT22;8258;51.020;4.248;2023-10-19T04:29:08;15.40;99.90
16301;DHT22;8258;51.020;4.248;2023-10-19T04:31:37;15.50;99.90
16301;DHT22;8258;51.020;4.248;2023-10-19T04:34:06;15.40;99.90
16301;DHT22;8258;51.020;4.248;2023-10-19T04:36:34;15.40;99.90
16301;DHT22;8258;51.020;4.248;2023-10-19T04:39:03;15.40;99.90
16301;DHT22;8258;51.020;4.248;2023-10-19T04:41:30;15.40;99.90
16301;DHT22;8258;51.020;4.248;2023-10-19T04:43:57;15.40;99.90
16301;DHT22;8258;51.020;4.248;2023-10-19T04:46:24;15.40;99.90
16301;DHT22;8258;51.020;4.248;2023-10-19T04:48:51;15.40;99.90
16301;DHT22;8258;51.020;4.248;2023-10-19T04:51:17;15.30;99.90
16301;DHT22;8258;51.020;4.248;2023-10-19T04:53:44;15.30;99.90
16301;DHT22;8258;51.020;4.248;2023-10-19T04:56:13;15.40;99.90
16301;DHT22;8258;51.020;4.248;2023-10-19T04:58:40;15.40;99.90
16301;DHT22;8258;51.020;4.248;2023-10-19T05:01:08;15.30;99.90
16301;DHT22;8258;51.020;4.248;2023-10-19T05:03:37;15.40;99.90
16301;DHT22;8258;51.020;4.248;2023-10-19T05:06:04;15.40;99.90
16301;DHT22;8258;51.020;4.248;2023-10-19T05:08:31;15.40;99.90
16301;DHT22;8258;51.020;4.248;2023-10-19T05:10:59;15.40;99.90
16301;DHT22;8258;51.020;4.248;2023-10-19T05:13:27;15.40;99.90
16301;DHT22;8258;51.020;4.248;2023-10-19T05:15:56;15.40;99.90
16301;DHT22;8258;51.020;4.248;2023-10-19T05:18:25;15.40;99.90
16301;DHT22;8258;51.020;4.248;2023-10-19T05:20:53;15.40;99.90
16301;DHT22;8258;51.020;4.248;2023-10-19T05:23:22;15.40;99.90
16301;DHT22;8258;51.020;4.248;2023-10-19T05:25:50;15.40;99.90
16301;DHT22;8258;51.020;4.248;2023-10-19T05:28:19;15.50;99.90
16301;DHT22;8258;51.020;4.248;2023-10-19T05:30:48;15.50;99.90
16301;DHT22;8258;51.020;4.248;2023-10-19T05:33:16;15.50;99.90
16301;DHT22;8258;51.020;4.248;2023-10-19T05:35:46;15.50;99.90
16301;DHT22;8258;51.020;4.248;2023-10-19T05:38:13;15.40;99.90
16301;DHT22;8258;51.020;4.248;2023-10-19T05:40:40;15.50;99.90
16301;DHT22;8258;51.020;4.248;2023-10-19T05:43:09;15.50;99.90
16301;DHT22;8258;51.020;4.248;2023-10-19T05:45:35;15.50;99.90
16301;DHT22;8258;51.020;4.248;2023-10-19T05:48:05;15.50;99.90
16301;DHT22;8258;51.020;4.248;2023-10-19T05:50:33;15.50;99.90
16301;DHT22;8258;51.020;4.248;2023-10-19T05:53:00;15.50;99.90
16301;DHT22;8258;51.020;4.248;2023-10-19T05:55:27;15.50;99.90
16301;DHT22;8258;51.020;4.248;2023-10-19T05:57:54;15.50;99.90
16301;DHT22;8258;51.020;4.248;2023-10-19T06:00:22;15.50;99.90
16301;DHT22;8258;51.020;4.248;2023-10-19T06:02:52;15.40;99.90
16301;DHT22;8258;51.020;4.248;2023-10-19T06:05:20;15.40;99.90
16301;DHT22;8258;51.020;4.248;2023-10-19T06:07:48;15.40;99.90
16301;DHT22;8258;51.020;4.248;2023-10-19T06:10:17;15.40;99.90
16301;DHT22;8258;51.020;4.248;2023-10-19T06:12:46;15.50;99.90
16301;DHT22;8258;51.020;4.248;2023-10-19T06:15:14;15.40;99.90
16301;DHT22;8258;51.020;4.248;2023-10-19T06:17:42;15.50;99.90
16301;DHT22;8258;51.020;4.248;2023-10-19T06:20:10;15.50;99.90
16301;DHT22;8258;51.020;4.248;2023-10-19T06:22:47;15.50;99.90
16301;DHT22;8258;51.020;4.248;2023-10-19T06:25:16;15.50;99.90
16301;DHT22;8258;51.020;4.248;2023-10-19T06:27:44;15.40;99.90
16301;DHT22;8258;51.020;4.248;2023-10-19T06:30:12;15.40;99.90
16301;DHT22;8258;51.020;4.248;2023-10-19T06:32:45;15.40;99.90
16301;DHT22;8258;51.020;4.248;2023-10-19T06:35:12;15.40;99.90
16301;DHT22;8258;51.020;4.248;2023-10-19T06:37:39;15.40;99.90
16301;DHT22;8258;51.020;4.248;2023-10-19T06:40:09;15.40;99.90
16301;DHT22;8258;51.020;4.248;2023-10-19T06:42:37;15.40;99.90
16301;DHT22;8258;51.020;4.248;2023-10-19T06:45:05;15.40;99.90
16301;DHT22;8258;51.020;4.248;2023-10-19T06:47:33;15.40;99.90
16301;DHT22;8258;51.020;4.248;2023-10-19T06:50:04;15.40;99.90
16301;DHT22;8258;51.020;4.248;2023-10-19T06:52:32;15.30;99.90
16301;DHT22;8258;51.020;4.248;2023-10-19T06:55:01;15.30;99.90
16301;DHT22;8258;51.020;4.248;2023-10-19T06:57:30;15.30;99.90
16301;DHT22;8258;51.020;4.248;2023-10-19T06:59:58;15.30;99.90
16301;DHT22;8258;51.020;4.248;2023-10-19T07:02:25;15.60;99.90
16301;DHT22;8258;51.020;4.248;2023-10-19T07:04:52;16.10;99.90
16301;DHT22;8258;51.020;4.248;2023-10-19T07:07:19;16.50;99.90
16301;DHT22;8258;51.020;4.248;2023-10-19T07:09:46;16.90;99.90
16301;DHT22;8258;51.020;4.248;2023-10-19T07:12:13;17.20;99.90
16301;DHT22;8258;51.020;4.248;2023-10-19T07:14:41;17.30;99.90
16301;DHT22;8258;51.020;4.248;2023-10-19T07:17:08;17.50;99.90
16301;DHT22;8258;51.020;4.248;2023-10-19T07:19:35;17.80;99.90
16301;DHT22;8258;51.020;4.248;2023-10-19T07:22:03;18.30;99.90
16301;DHT22;8258;51.020;4.248;2023-10-19T07:24:30;18.50;99.90
16301;DHT22;8258;51.020;4.248;2023-10-19T07:26:58;18.70;99.90
16301;DHT22;8258;51.020;4.248;2023-10-19T10:53:30;18.30;99.90
16301;DHT22;8258;51.020;4.248;2023-10-19T10:56:00;18.30;99.90
16301;DHT22;8258;51.020;4.248;2023-10-19T10:58:27;18.30;99.90
16301;DHT22;8258;51.020;4.248;2023-10-19T11:20:04;17.90;99.90
16301;DHT22;8258;51.020;4.248;2023-10-19T11:22:31;17.80;99.90
16301;DHT22;8258;51.020;4.248;2023-10-19T11:25:17;17.90;99.90
16301;DHT22;8258;51.020;4.248;2023-10-19T11:27:44;17.80;99.90
16301;DHT22;8258;51.020;4.248;2023-10-19T12:28:22;17.70;99.90
16301;DHT22;8258;51.020;4.248;2023-10-19T12:30:50;17.70;99.90
16301;DHT22;8258;51.020;4.248;2023-10-19T12:33:17;17.60;99.90
16301;DHT22;8258;51.020;4.248;2023-10-19T12:35:45;17.70;99.90
16301;DHT22;8258;51.020;4.248;2023-10-19T12:38:15;17.70;99.90
16301;DHT22;8258;51.020;4.248;2023-10-19T12:40:43;17.80;99.90
16301;DHT22;8258;51.020;4.248;2023-10-19T12:43:12;17.80;99.90
16301;DHT22;8258;51.020;4.248;2023-10-19T12:48:17;17.90;99.90
16301;DHT22;8258;51.020;4.248;2023-10-19T12:50:44;18.00;99.90
16301;DHT22;8258;51.020;4.248;2023-10-19T12:53:10;18.20;99.90
16301;DHT22;8258;51.020;4.248;2023-10-19T16:07:38;19.10;99.90
16301;DHT22;8258;51.020;4.248;2023-10-19T17:11:20;17.00;99.90
16301;DHT22;8258;51.020;4.248;2023-10-19T17:13:47;16.90;99.90
16301;DHT22;8258;51.020;4.248;2023-10-19T17:16:21;16.90;99.90
16301;DHT22;8258;51.020;4.248;2023-10-19T17:18:47;16.80;99.90
16301;DHT22;8258;51.020;4.248;2023-10-19T17:21:15;16.70;99.90
16301;DHT22;8258;51.020;4.248;2023-10-19T17:23:43;16.60;99.90
16301;DHT22;8258;51.020;4.248;2023-10-19T17:26:10;16.60;99.90
16301;DHT22;8258;51.020;4.248;2023-10-19T17:28:38;16.50;99.90
16301;DHT22;8258;51.020;4.248;2023-10-19T17:31:05;16.40;99.90
16301;DHT22;8258;51.020;4.248;2023-10-19T17:33:32;16.40;99.90
16301;DHT22;8258;51.020;4.248;2023-10-19T17:35:59;16.40;99.90
16301;DHT22;8258;51.020;4.248;2023-10-19T17:38:26;16.30;99.90
16301;DHT22;8258;51.020;4.248;2023-10-19T17:40:53;16.20;99.90
16301;DHT22;8258;51.020;4.248;2023-10-19T17:43:20;16.20;99.90
16301;DHT22;8258;51.020;4.248;2023-10-19T19:47:19;15.30;99.90
16301;DHT22;8258;51.020;4.248;2023-10-19T19:49:46;15.30;99.90
16301;DHT22;8258;51.020;4.248;2023-10-19T19:52:13;15.30;99.90
16301;DHT22;8258;51.020;4.248;2023-10-19T19:54:40;15.30;99.90
16301;DHT22;8258;51.020;4.248;2023-10-19T19:57:07;15.20;99.90
16301;DHT22;8258;51.020;4.248;2023-10-19T19:59:34;15.20;99.90
16301;DHT22;8258;51.020;4.248;2023-10-19T20:02:02;15.20;99.90
16301;DHT22;8258;51.020;4.248;2023-10-19T20:04:31;15.20;99.90
16301;DHT22;8258;51.020;4.248;2023-10-19T20:06:58;15.20;99.90
16301;DHT22;8258;51.020;4.248;2023-10-19T20:09:26;15.20;99.90
16301;DHT22;8258;51.020;4.248;2023-10-19T20:11:53;15.20;99.90
16301;DHT22;8258;51.020;4.248;2023-10-19T20:14:21;15.20;99.90
16301;DHT22;8258;51.020;4.248;2023-10-19T20:16:48;15.20;99.90
16301;DHT22;8258;51.020;4.248;2023-10-19T20:21:52;15.10;99.90
16301;DHT22;8258;51.020;4.248;2023-10-19T20:24:19;15.10;99.90
16301;DHT22;8258;51.020;4.248;2023-10-19T20:26:46;15.10;99.90
16301;DHT22;8258;51.020;4.248;2023-10-19T20:29:12;15.10;99.90
16301;DHT22;8258;51.020;4.248;2023-10-19T20:31:40;15.10;99.90
16301;DHT22;8258;51.020;4.248;2023-10-19T20:34:07;15.00;99.90
16301;DHT22;8258;51.020;4.248;2023-10-19T20:36:33;15.00;99.90
16301;DHT22;8258;51.020;4.248;2023-10-19T20:39:02;15.00;99.90
16301;DHT22;8258;51.020;4.248;2023-10-19T20:41:29;15.00;99.90
16301;DHT22;8258;51.020;4.248;2023-10-19T20:43:56;15.00;99.90
16301;DHT22;8258;51.020;4.248;2023-10-19T20:46:23;14.90;99.90
16301;DHT22;8258;51.020;4.248;2023-10-19T20:48:50;14.90;99.90
16301;DHT22;8258;51.020;4.248;2023-10-19T20:51:17;14.90;99.90
16301;DHT22;8258;51.020;4.248;2023-10-19T20:53:44;14.90;99.90
16301;DHT22;8258;51.020;4.248;2023-10-19T20:56:13;14.90;99.90
16301;DHT22;8258;51.020;4.248;2023-10-19T20:58:39;14.80;99.90
16301;DHT22;8258;51.020;4.248;2023-10-19T21:01:07;14.80;99.90
16301;DHT22;8258;51.020;4.248;2023-10-19T21:03:34;14.80;99.90
16301;DHT22;8258;51.020;4.248;2023-10-19T21:06:09;14.80;99.90
16301;DHT22;8258;51.020;4.248;2023-10-19T21:08:37;14.70;99.90
16301;DHT22;8258;51.020;4.248;2023-10-19T21:11:04;14.70;99.90
16301;DHT22;8258;51.020;4.248;2023-10-19T21:13:39;14.70;99.90
16301;DHT22;8258;51.020;4.248;2023-10-19T21:16:07;14.70;99.90
16301;DHT22;8258;51.020;4.248;2023-10-19T21:18:36;14.70;99.90
16301;DHT22;8258;51.020;4.248;2023-10-19T21:21:03;14.70;99.90
16301;DHT22;8258;51.020;4.248;2023-10-19T21:23:31;14.70;99.90
16301;DHT22;8258;51.020;4.248;2023-10-19T21:25:58;14.70;99.90
16301;DHT22;8258;51.020;4.248;2023-10-19T21:28:25;14.70;99.90
16301;DHT22;8258;51.020;4.248;2023-10-19T21:30:53;14.70;99.90
16301;DHT22;8258;51.020;4.248;2023-10-19T21:33:20;14.80;99.90
16301;DHT22;8258;51.020;4.248;2023-10-19T21:35:47;14.80;99.90
16301;DHT22;8258;51.020;4.248;2023-10-19T21:38:15;14.80;99.90
16301;DHT22;8258;51.020;4.248;2023-10-19T21:40:42;14.80;99.90
16301;DHT22;8258;51.020;4.248;2023-10-19T21:43:10;14.80;99.90
16301;DHT22;8258;51.020;4.248;2023-10-19T21:45:37;14.80;99.90
16301;DHT22;8258;51.020;4.248;2023-10-19T21:48:07;14.80;99.90
16301;DHT22;8258;51.020;4.248;2023-10-19T21:50:35;14.80;99.90
16301;DHT22;8258;51.020;4.248;2023-10-19T21:53:02;14.80;99.90
16301;DHT22;8258;51.020;4.248;2023-10-19T21:55:31;14.80;99.90
16301;DHT22;8258;51.020;4.248;2023-10-19T21:57:58;14.80;99.90
16301;DHT22;8258;51.020;4.248;2023-10-19T22:00:25;14.90;99.90
16301;DHT22;8258;51.020;4.248;2023-10-19T22:02:55;14.90;99.90
16301;DHT22;8258;51.020;4.248;2023-10-19T22:05:23;14.90;99.90
16301;DHT22;8258;51.020;4.248;2023-10-19T22:07:50;14.90;99.90
16301;DHT22;8258;51.020;4.248;2023-10-19T22:10:18;14.90;99.90
16301;DHT22;8258;51.020;4.248;2023-10-19T22:12:46;14.90;99.90
16301;DHT22;8258;51.020;4.248;2023-10-19T22:15:13;14.90;99.90
16301;DHT22;8258;51.020;4.248;2023-10-19T22:17:43;14.90;99.90
16301;DHT22;8258;51.020;4.248;2023-10-19T22:20:11;14.90;99.90
16301;DHT22;8258;51.020;4.248;2023-10-19T22:22:41;14.90;99.90
16301;DHT22;8258;51.020;4.248;2023-10-19T22:25:09;14.90;99.90
16301;DHT22;8258;51.020;4.248;2023-10-19T22:27:38;14.90;99.90
16301;DHT22;8258;51.020;4.248;2023-10-19T22:30:06;14.90;99.90
16301;DHT22;8258;51.020;4.248;2023-10-19T22:32:33;14.90;99.90
16301;DHT22;8258;51.020;4.248;2023-10-19T22:35:01;14.90;99.90
16301;DHT22;8258;51.020;4.248;2023-10-19T22:37:30;14.90;99.90
16301;DHT22;8258;51.020;4.248;2023-10-19T22:39:59;14.90;99.90
16301;DHT22;8258;51.020;4.248;2023-10-19T22:42:26;14.90;99.90
16301;DHT22;8258;51.020;4.248;2023-10-19T22:44:53;14.90;99.90
16301;DHT22;8258;51.020;4.248;2023-10-19T22:47:21;14.90;99.90
16301;DHT22;8258;51.020;4.248;2023-10-19T22:49:48;14.90;99.90
16301;DHT22;8258;51.020;4.248;2023-10-19T22:52:15;14.90;99.90
16301;DHT22;8258;51.020;4.248;2023-10-19T22:54:42;14.90;99.90
16301;DHT22;8258;51.020;4.248;2023-10-19T22:57:10;14.90;99.90
16301;DHT22;8258;51.020;4.248;2023-10-19T22:59:37;14.90;99.90
16301;DHT22;8258;51.020;4.248;2023-10-19T23:02:05;14.90;99.90
16301;DHT22;8258;51.020;4.248;2023-10-19T23:04:31;14.90;99.90
16301;DHT22;8258;51.020;4.248;2023-10-19T23:06:59;14.90;99.90
16301;DHT22;8258;51.020;4.248;2023-10-19T23:09:26;14.80;99.90
16301;DHT22;8258;51.020;4.248;2023-10-19T23:11:53;14.90;99.90
16301;DHT22;8258;51.020;4.248;2023-10-19T23:14:29;14.90;99.90
16301;DHT22;8258;51.020;4.248;2023-10-19T23:16:56;14.90;99.90
16301;DHT22;8258;51.020;4.248;2023-10-19T23:19:27;15.00;99.90
16301;DHT22;8258;51.020;4.248;2023-10-19T23:21:59;15.00;99.90
16301;DHT22;8258;51.020;4.248;2023-10-19T23:24:27;15.00;99.90
16301;DHT22;8258;51.020;4.248;2023-10-19T23:26:56;15.00;99.90
16301;DHT22;8258;51.020;4.248;2023-10-19T23:29:23;15.00;99.90
16301;DHT22;8258;51.020;4.248;2023-10-19T23:31:55;15.00;99.90
16301;DHT22;8258;51.020;4.248;2023-10-19T23:34:22;15.00;99.90
16301;DHT22;8258;51.020;4.248;2023-10-19T23:36:49;15.00;99.90
16301;DHT22;8258;51.020;4.248;2023-10-19T23:39:16;15.00;99.90
16301;DHT22;8258;51.020;4.248;2023-10-19T23:41:52;15.00;99.90
16301;DHT22;8258;51.020;4.248;2023-10-19T23:44:19;15.10;99.90
16301;DHT22;8258;51.020;4.248;2023-10-19T23:46:47;15.00;99.90
16301;DHT22;8258;51.020;4.248;2023-10-19T23:49:16;15.00;99.90
16301;DHT22;8258;51.020;4.248;2023-10-19T23:51:43;15.00;99.90
16301;DHT22;8258;51.020;4.248;2023-10-19T23:54:09;15.10;99.90
16301;DHT22;8258;51.020;4.248;2023-10-19T23:56:36;15.00;99.90
16301;DHT22;8258;51.020;4.248;2023-10-19T23:59:03;15.00;99.90
